Terminal Aerodrome Forecast
Issued by NWS

Home | Current Version | Previous Version | Text Only | Print | Product List | Glossary On
Versions: 1 2 3 4 5 6 7 8 9 10 11 12 13 14 15 16 17 18 19 20 21 22 23 24
000
FTUS44 KLIX 040529
TAFHUM
TAF
KHUM 040529Z 0406/0506 12003KT P6SM SKC
      TEMPO 0409/0413 4SM BR SCT007
     FM041400 09008KT P6SM SCT025
     FM041600 12013KT P6SM BKN040
     FM050000 12010KT P6SM FEW050 BKN250=

USA.gov is the U.S. government's official web portal to all federal, state and local government web resources and services.